sensor_id;sensor_type;location;lat;lon;timestamp;temperature;humidity
13697;DHT22;6920;50.080;8.226;2023-09-19T00:11:52;16.80;99.90
13697;DHT22;6920;50.080;8.226;2023-09-19T01:11:21;16.70;99.90
13697;DHT22;6920;50.080;8.226;2023-09-19T01:16:31;16.70;99.90
13697;DHT22;6920;50.080;8.226;2023-09-19T01:19:27;16.70;99.90
13697;DHT22;6920;50.080;8.226;2023-09-19T01:22:09;16.60;99.90
13697;DHT22;6920;50.080;8.226;2023-09-19T01:25:10;16.60;99.90
13697;DHT22;6920;50.080;8.226;2023-09-19T01:30:27;16.50;99.90
13697;DHT22;6920;50.080;8.226;2023-09-19T01:42:56;16.50;99.90
13697;DHT22;6920;50.080;8.226;2023-09-19T01:45:34;16.40;99.90
13697;DHT22;6920;50.080;8.226;2023-09-19T01:48:18;16.50;99.90
13697;DHT22;6920;50.080;8.226;2023-09-19T01:50:55;16.50;99.90
13697;DHT22;6920;50.080;8.226;2023-09-19T01:53:27;16.60;99.90
13697;DHT22;6920;50.080;8.226;2023-09-19T01:55:57;16.60;99.90
13697;DHT22;6920;50.080;8.226;2023-09-19T01:58:32;16.60;99.90
13697;DHT22;6920;50.080;8.226;2023-09-19T02:01:03;16.50;99.90
13697;DHT22;6920;50.080;8.226;2023-09-19T02:03:32;16.50;99.90
13697;DHT22;6920;50.080;8.226;2023-09-19T02:08:31;16.50;99.90
13697;DHT22;6920;50.080;8.226;2023-09-19T02:43:11;16.40;99.90
13697;DHT22;6920;50.080;8.226;2023-09-19T03:17:47;15.70;99.90
13697;DHT22;6920;50.080;8.226;2023-09-19T03:52:36;15.70;99.90
13697;DHT22;6920;50.080;8.226;2023-09-19T03:57:31;15.50;99.90
13697;DHT22;6920;50.080;8.226;2023-09-19T04:10:11;15.30;99.90
13697;DHT22;6920;50.080;8.226;2023-09-19T04:37:39;15.00;99.90
13697;DHT22;6920;50.080;8.226;2023-09-19T04:47:36;15.10;99.90
13697;DHT22;6920;50.080;8.226;2023-09-19T05:07:41;14.90;99.90
13697;DHT22;6920;50.080;8.226;2023-09-19T05:15:06;14.90;99.90
13697;DHT22;6920;50.080;8.226;2023-09-19T05:17:34;14.90;99.90
13697;DHT22;6920;50.080;8.226;2023-09-19T05:27:43;15.00;99.90
13697;DHT22;6920;50.080;8.226;2023-09-19T05:59:54;15.30;99.90
13697;DHT22;6920;50.080;8.226;2023-09-19T07:50:22;16.70;99.90
13697;DHT22;6920;50.080;8.226;2023-09-19T07:56:01;16.70;99.90
13697;DHT22;6920;50.080;8.226;2023-09-19T07:58:32;17.00;99.90
13697;DHT22;6920;50.080;8.226;2023-09-19T08:01:04;17.10;99.90
13697;DHT22;6920;50.080;8.226;2023-09-19T08:03:32;17.10;99.90
13697;DHT22;6920;50.080;8.226;2023-09-19T08:06:05;17.20;99.90
13697;DHT22;6920;50.080;8.226;2023-09-19T08:08:34;17.30;99.90
13697;DHT22;6920;50.080;8.226;2023-09-19T08:11:04;17.40;99.90
13697;DHT22;6920;50.080;8.226;2023-09-19T08:13:37;17.50;99.90
13697;DHT22;6920;50.080;8.226;2023-09-19T08:16:10;17.60;99.90
13697;DHT22;6920;50.080;8.226;2023-09-19T08:18:38;17.70;99.90
13697;DHT22;6920;50.080;8.226;2023-09-19T08:21:12;17.90;99.90
13697;DHT22;6920;50.080;8.226;2023-09-19T08:23:42;18.10;99.90
13697;DHT22;6920;50.080;8.226;2023-09-19T08:26:18;18.00;99.90
13697;DHT22;6920;50.080;8.226;2023-09-19T08:28:52;18.20;99.90
13697;DHT22;6920;50.080;8.226;2023-09-19T08:31:20;18.20;99.90
13697;DHT22;6920;50.080;8.226;2023-09-19T08:33:50;18.10;99.90
13697;DHT22;6920;50.080;8.226;2023-09-19T08:36:23;17.90;99.90
13697;DHT22;6920;50.080;8.226;2023-09-19T08:38:52;17.90;99.90
13697;DHT22;6920;50.080;8.226;2023-09-19T08:41:20;17.80;99.90
13697;DHT22;6920;50.080;8.226;2023-09-19T08:43:49;17.80;99.90
13697;DHT22;6920;50.080;8.226;2023-09-19T08:46:20;17.80;99.90
13697;DHT22;6920;50.080;8.226;2023-09-19T08:48:57;18.00;99.90
13697;DHT22;6920;50.080;8.226;2023-09-19T08:51:41;18.20;99.90
13697;DHT22;6920;50.080;8.226;2023-09-19T08:54:20;18.30;99.90
13697;DHT22;6920;50.080;8.226;2023-09-19T08:57:00;18.60;99.90
13697;DHT22;6920;50.080;8.226;2023-09-19T08:59:48;18.70;99.90
13697;DHT22;6920;50.080;8.226;2023-09-19T09:02:20;18.70;99.90
13697;DHT22;6920;50.080;8.226;2023-09-19T09:04:54;18.70;99.90
13697;DHT22;6920;50.080;8.226;2023-09-19T09:07:24;18.60;99.90
13697;DHT22;6920;50.080;8.226;2023-09-19T09:09:54;18.80;99.90
13697;DHT22;6920;50.080;8.226;2023-09-19T09:12:22;18.70;99.90
13697;DHT22;6920;50.080;8.226;2023-09-19T09:14:53;18.70;99.90
13697;DHT22;6920;50.080;8.226;2023-09-19T09:17:25;18.80;99.90
13697;DHT22;6920;50.080;8.226;2023-09-19T09:19:53;18.80;99.90
13697;DHT22;6920;50.080;8.226;2023-09-19T09:22:27;19.00;99.90
13697;DHT22;6920;50.080;8.226;2023-09-19T09:24:58;19.00;99.90
13697;DHT22;6920;50.080;8.226;2023-09-19T09:27:31;19.00;99.90
13697;DHT22;6920;50.080;8.226;2023-09-19T09:30:01;18.90;99.90
13697;DHT22;6920;50.080;8.226;2023-09-19T09:32:36;19.20;99.90
13697;DHT22;6920;50.080;8.226;2023-09-19T09:35:08;19.40;99.90
13697;DHT22;6920;50.080;8.226;2023-09-19T09:37:45;19.50;99.90
13697;DHT22;6920;50.080;8.226;2023-09-19T09:40:14;19.70;99.90
13697;DHT22;6920;50.080;8.226;2023-09-19T09:42:59;19.80;99.90
13697;DHT22;6920;50.080;8.226;2023-09-19T09:45:26;19.70;99.90
13697;DHT22;6920;50.080;8.226;2023-09-19T09:48:03;20.00;99.90
13697;DHT22;6920;50.080;8.226;2023-09-19T09:50:47;20.40;99.90
13697;DHT22;6920;50.080;8.226;2023-09-19T09:56:52;20.30;99.90
13697;DHT22;6920;50.080;8.226;2023-09-19T09:59:20;20.20;99.90
13697;DHT22;6920;50.080;8.226;2023-09-19T10:01:50;20.10;99.90
13697;DHT22;6920;50.080;8.226;2023-09-19T10:04:44;20.30;99.90
13697;DHT22;6920;50.080;8.226;2023-09-19T10:07:25;20.70;99.90
13697;DHT22;6920;50.080;8.226;2023-09-19T10:09:58;20.70;99.90
13697;DHT22;6920;50.080;8.226;2023-09-19T10:12:40;20.80;99.90
13697;DHT22;6920;50.080;8.226;2023-09-19T10:15:11;20.40;99.90
13697;DHT22;6920;50.080;8.226;2023-09-19T10:17:43;20.10;99.90
13697;DHT22;6920;50.080;8.226;2023-09-19T10:20:13;20.40;99.90
13697;DHT22;6920;50.080;8.226;2023-09-19T10:22:59;21.00;99.90
13697;DHT22;6920;50.080;8.226;2023-09-19T10:28:00;21.20;99.90
13697;DHT22;6920;50.080;8.226;2023-09-19T10:30:36;21.20;99.90
13697;DHT22;6920;50.080;8.226;2023-09-19T10:33:05;21.50;99.90
13697;DHT22;6920;50.080;8.226;2023-09-19T10:35:33;21.20;99.90
13697;DHT22;6920;50.080;8.226;2023-09-19T10:38:01;20.50;99.90
13697;DHT22;6920;50.080;8.226;2023-09-19T10:40:30;20.60;99.90
13697;DHT22;6920;50.080;8.226;2023-09-19T10:43:25;21.00;99.90
13697;DHT22;6920;50.080;8.226;2023-09-19T10:45:53;21.00;99.90
13697;DHT22;6920;50.080;8.226;2023-09-19T10:48:24;20.70;99.90
13697;DHT22;6920;50.080;8.226;2023-09-19T10:50:53;21.10;99.90
13697;DHT22;6920;50.080;8.226;2023-09-19T10:53:27;21.10;99.90
13697;DHT22;6920;50.080;8.226;2023-09-19T10:55:58;20.90;99.90
13697;DHT22;6920;50.080;8.226;2023-09-19T10:58:29;21.10;99.90
13697;DHT22;6920;50.080;8.226;2023-09-19T11:00:57;21.00;99.90
13697;DHT22;6920;50.080;8.226;2023-09-19T11:03:31;21.30;99.90
13697;DHT22;6920;50.080;8.226;2023-09-19T11:06:07;21.60;99.90
13697;DHT22;6920;50.080;8.226;2023-09-19T11:08:59;21.50;99.90
13697;DHT22;6920;50.080;8.226;2023-09-19T11:11:44;21.70;99.90
13697;DHT22;6920;50.080;8.226;2023-09-19T11:14:32;21.90;99.90
13697;DHT22;6920;50.080;8.226;2023-09-19T11:20:25;22.40;99.90
13697;DHT22;6920;50.080;8.226;2023-09-19T11:23:25;22.70;99.90
13697;DHT22;6920;50.080;8.226;2023-09-19T11:25:53;22.60;99.90
13697;DHT22;6920;50.080;8.226;2023-09-19T11:28:36;22.40;99.90
13697;DHT22;6920;50.080;8.226;2023-09-19T11:34:48;22.30;99.90
13697;DHT22;6920;50.080;8.226;2023-09-19T11:40:46;21.80;99.90
13697;DHT22;6920;50.080;8.226;2023-09-19T11:43:29;22.10;99.90
13697;DHT22;6920;50.080;8.226;2023-09-19T11:46:06;22.10;99.90
13697;DHT22;6920;50.080;8.226;2023-09-19T11:48:35;21.90;99.90
13697;DHT22;6920;50.080;8.226;2023-09-19T11:51:37;21.80;99.90
13697;DHT22;6920;50.080;8.226;2023-09-19T11:54:13;21.50;99.90
13697;DHT22;6920;50.080;8.226;2023-09-19T11:56:48;21.70;99.90
13697;DHT22;6920;50.080;8.226;2023-09-19T11:59:20;22.20;99.90
13697;DHT22;6920;50.080;8.226;2023-09-19T12:01:51;22.40;99.90
13697;DHT22;6920;50.080;8.226;2023-09-19T12:04:34;22.90;99.90
13697;DHT22;6920;50.080;8.226;2023-09-19T12:07:14;23.00;99.90
13697;DHT22;6920;50.080;8.226;2023-09-19T12:09:42;22.90;99.90
13697;DHT22;6920;50.080;8.226;2023-09-19T12:12:19;22.70;99.90
13697;DHT22;6920;50.080;8.226;2023-09-19T12:14:48;22.70;99.90
13697;DHT22;6920;50.080;8.226;2023-09-19T12:17:17;22.70;99.90
13697;DHT22;6920;50.080;8.226;2023-09-19T12:19:52;22.70;99.90
13697;DHT22;6920;50.080;8.226;2023-09-19T12:22:21;22.80;99.90
13697;DHT22;6920;50.080;8.226;2023-09-19T12:24:48;22.80;99.90
13697;DHT22;6920;50.080;8.226;2023-09-19T12:27:16;23.00;99.90
13697;DHT22;6920;50.080;8.226;2023-09-19T12:29:44;23.00;99.90
13697;DHT22;6920;50.080;8.226;2023-09-19T12:32:12;23.00;99.90
13697;DHT22;6920;50.080;8.226;2023-09-19T12:34:49;22.80;99.90
13697;DHT22;6920;50.080;8.226;2023-09-19T12:37:18;22.80;99.90
13697;DHT22;6920;50.080;8.226;2023-09-19T12:39:50;22.50;99.90
13697;DHT22;6920;50.080;8.226;2023-09-19T12:42:23;22.30;99.90
13697;DHT22;6920;50.080;8.226;2023-09-19T12:44:54;22.40;99.90
13697;DHT22;6920;50.080;8.226;2023-09-19T12:47:24;22.60;99.90
13697;DHT22;6920;50.080;8.226;2023-09-19T12:50:11;23.00;99.90
13697;DHT22;6920;50.080;8.226;2023-09-19T12:52:46;22.80;99.90
13697;DHT22;6920;50.080;8.226;2023-09-19T12:55:23;22.70;99.90
13697;DHT22;6920;50.080;8.226;2023-09-19T12:58:08;23.10;99.90
13697;DHT22;6920;50.080;8.226;2023-09-19T13:00:42;23.40;99.90
13697;DHT22;6920;50.080;8.226;2023-09-19T13:03:15;23.50;99.70
13697;DHT22;6920;50.080;8.226;2023-09-19T13:05:50;23.40;99.90
13697;DHT22;6920;50.080;8.226;2023-09-19T13:08:18;23.20;99.70
13697;DHT22;6920;50.080;8.226;2023-09-19T13:11:07;23.10;99.90
13697;DHT22;6920;50.080;8.226;2023-09-19T13:13:42;23.00;99.70
13697;DHT22;6920;50.080;8.226;2023-09-19T13:16:22;22.90;99.90
13697;DHT22;6920;50.080;8.226;2023-09-19T13:18:55;23.50;99.80
13697;DHT22;6920;50.080;8.226;2023-09-19T13:21:31;23.50;99.50
13697;DHT22;6920;50.080;8.226;2023-09-19T13:24:19;23.10;99.60
13697;DHT22;6920;50.080;8.226;2023-09-19T13:26:50;22.90;99.90
13697;DHT22;6920;50.080;8.226;2023-09-19T13:29:17;22.50;99.90
13697;DHT22;6920;50.080;8.226;2023-09-19T13:31:46;22.60;99.90
13697;DHT22;6920;50.080;8.226;2023-09-19T13:34:14;22.90;99.90
13697;DHT22;6920;50.080;8.226;2023-09-19T13:36:44;23.20;99.90
13697;DHT22;6920;50.080;8.226;2023-09-19T13:39:15;23.30;99.70
13697;DHT22;6920;50.080;8.226;2023-09-19T13:41:46;23.70;99.50
13697;DHT22;6920;50.080;8.226;2023-09-19T13:44:15;23.70;98.70
13697;DHT22;6920;50.080;8.226;2023-09-19T13:46:45;23.30;98.30
13697;DHT22;6920;50.080;8.226;2023-09-19T13:49:12;23.00;99.00
13697;DHT22;6920;50.080;8.226;2023-09-19T13:51:40;22.80;98.90
13697;DHT22;6920;50.080;8.226;2023-09-19T13:54:11;23.00;98.90
13697;DHT22;6920;50.080;8.226;2023-09-19T13:56:42;23.40;99.30
13697;DHT22;6920;50.080;8.226;2023-09-19T13:59:10;23.40;99.20
13697;DHT22;6920;50.080;8.226;2023-09-19T14:01:40;23.20;98.80
13697;DHT22;6920;50.080;8.226;2023-09-19T14:04:11;22.70;99.70
13697;DHT22;6920;50.080;8.226;2023-09-19T14:06:42;22.70;99.70
13697;DHT22;6920;50.080;8.226;2023-09-19T14:09:24;22.60;99.20
13697;DHT22;6920;50.080;8.226;2023-09-19T14:11:51;22.30;99.60
13697;DHT22;6920;50.080;8.226;2023-09-19T14:14:20;22.10;99.80
13697;DHT22;6920;50.080;8.226;2023-09-19T14:16:49;22.30;99.90
13697;DHT22;6920;50.080;8.226;2023-09-19T14:19:18;22.80;99.60
13697;DHT22;6920;50.080;8.226;2023-09-19T14:21:46;22.80;99.50
13697;DHT22;6920;50.080;8.226;2023-09-19T14:24:17;22.60;99.70
13697;DHT22;6920;50.080;8.226;2023-09-19T14:29:11;22.30;99.90
13697;DHT22;6920;50.080;8.226;2023-09-19T14:31:40;22.10;99.90
13697;DHT22;6920;50.080;8.226;2023-09-19T14:34:08;21.80;99.90
13697;DHT22;6920;50.080;8.226;2023-09-19T14:36:37;22.30;99.90
13697;DHT22;6920;50.080;8.226;2023-09-19T14:39:05;22.70;99.90
13697;DHT22;6920;50.080;8.226;2023-09-19T14:41:34;22.80;99.00
13697;DHT22;6920;50.080;8.226;2023-09-19T14:44:02;22.80;99.20
13697;DHT22;6920;50.080;8.226;2023-09-19T14:46:32;22.60;99.10
13697;DHT22;6920;50.080;8.226;2023-09-19T14:49:00;22.50;99.40
13697;DHT22;6920;50.080;8.226;2023-09-19T14:51:35;22.30;99.60
13697;DHT22;6920;50.080;8.226;2023-09-19T14:54:07;22.40;99.90
13697;DHT22;6920;50.080;8.226;2023-09-19T14:59:02;22.20;99.90
13697;DHT22;6920;50.080;8.226;2023-09-19T15:01:32;22.00;99.90
13697;DHT22;6920;50.080;8.226;2023-09-19T15:04:00;21.90;99.90
13697;DHT22;6920;50.080;8.226;2023-09-19T15:08:58;21.60;99.90
13697;DHT22;6920;50.080;8.226;2023-09-19T15:11:27;21.60;99.90
13697;DHT22;6920;50.080;8.226;2023-09-19T15:13:55;21.60;99.90
13697;DHT22;6920;50.080;8.226;2023-09-19T15:16:26;21.60;99.90
13697;DHT22;6920;50.080;8.226;2023-09-19T15:18:55;21.60;99.90
13697;DHT22;6920;50.080;8.226;2023-09-19T15:21:25;21.60;99.90
13697;DHT22;6920;50.080;8.226;2023-09-19T15:23:54;21.50;99.90
13697;DHT22;6920;50.080;8.226;2023-09-19T15:26:25;21.50;99.90
13697;DHT22;6920;50.080;8.226;2023-09-19T15:28:52;21.40;99.90
13697;DHT22;6920;50.080;8.226;2023-09-19T15:31:20;21.30;99.90
13697;DHT22;6920;50.080;8.226;2023-09-19T15:36:15;21.50;99.90
13697;DHT22;6920;50.080;8.226;2023-09-19T15:38:57;21.60;99.90
13697;DHT22;6920;50.080;8.226;2023-09-19T15:41:27;21.60;99.90
13697;DHT22;6920;50.080;8.226;2023-09-19T15:46:25;21.60;99.90
13697;DHT22;6920;50.080;8.226;2023-09-19T15:48:58;21.40;99.90
13697;DHT22;6920;50.080;8.226;2023-09-19T15:51:26;21.40;99.90
13697;DHT22;6920;50.080;8.226;2023-09-19T15:53:57;21.40;99.90
13697;DHT22;6920;50.080;8.226;2023-09-19T15:56:27;21.30;99.90
13697;DHT22;6920;50.080;8.226;2023-09-19T15:58:55;21.30;99.90
13697;DHT22;6920;50.080;8.226;2023-09-19T16:01:23;21.20;99.90
13697;DHT22;6920;50.080;8.226;2023-09-19T16:03:53;21.20;99.90
13697;DHT22;6920;50.080;8.226;2023-09-19T16:06:24;21.20;99.90
13697;DHT22;6920;50.080;8.226;2023-09-19T16:08:53;21.10;99.90
13697;DHT22;6920;50.080;8.226;2023-09-19T16:11:27;21.20;99.90
13697;DHT22;6920;50.080;8.226;2023-09-19T16:13:56;21.10;99.90
13697;DHT22;6920;50.080;8.226;2023-09-19T16:16:26;21.10;99.90
13697;DHT22;6920;50.080;8.226;2023-09-19T16:18:57;21.00;99.90
13697;DHT22;6920;50.080;8.226;2023-09-19T16:21:26;21.10;99.90
13697;DHT22;6920;50.080;8.226;2023-09-19T16:23:56;21.00;99.90
13697;DHT22;6920;50.080;8.226;2023-09-19T16:26:24;21.00;99.90
13697;DHT22;6920;50.080;8.226;2023-09-19T16:28:53;21.00;99.90
13697;DHT22;6920;50.080;8.226;2023-09-19T16:31:23;21.00;99.90
13697;DHT22;6920;50.080;8.226;2023-09-19T16:33:54;21.00;99.90
13697;DHT22;6920;50.080;8.226;2023-09-19T16:36:22;21.00;99.90
13697;DHT22;6920;50.080;8.226;2023-09-19T16:38:50;20.90;99.90
13697;DHT22;6920;50.080;8.226;2023-09-19T16:41:18;20.90;99.90
13697;DHT22;6920;50.080;8.226;2023-09-19T16:43:48;20.90;99.90
13697;DHT22;6920;50.080;8.226;2023-09-19T16:46:18;20.90;99.90
13697;DHT22;6920;50.080;8.226;2023-09-19T16:48:46;20.90;99.90
13697;DHT22;6920;50.080;8.226;2023-09-19T16:51:15;20.90;99.90
13697;DHT22;6920;50.080;8.226;2023-09-19T16:53:45;20.90;99.90
13697;DHT22;6920;50.080;8.226;2023-09-19T16:56:14;20.90;99.90
13697;DHT22;6920;50.080;8.226;2023-09-19T17:01:53;21.00;99.90
13697;DHT22;6920;50.080;8.226;2023-09-19T17:04:25;21.00;99.90
13697;DHT22;6920;50.080;8.226;2023-09-19T17:06:56;20.90;99.90
13697;DHT22;6920;50.080;8.226;2023-09-19T17:09:23;20.90;99.90
13697;DHT22;6920;50.080;8.226;2023-09-19T17:11:52;20.90;99.90
13697;DHT22;6920;50.080;8.226;2023-09-19T17:14:20;20.90;99.90
13697;DHT22;6920;50.080;8.226;2023-09-19T17:19:17;20.80;99.90
13697;DHT22;6920;50.080;8.226;2023-09-19T17:21:49;20.90;99.90
13697;DHT22;6920;50.080;8.226;2023-09-19T17:24:18;20.80;99.90
13697;DHT22;6920;50.080;8.226;2023-09-19T17:26:47;20.80;99.90
13697;DHT22;6920;50.080;8.226;2023-09-19T17:29:19;20.80;99.90
13697;DHT22;6920;50.080;8.226;2023-09-19T17:31:56;20.80;99.90
13697;DHT22;6920;50.080;8.226;2023-09-19T17:34:27;20.70;99.90
13697;DHT22;6920;50.080;8.226;2023-09-19T17:36:55;20.70;99.90
13697;DHT22;6920;50.080;8.226;2023-09-19T17:39:23;20.70;99.90
13697;DHT22;6920;50.080;8.226;2023-09-19T17:41:52;20.60;99.90
13697;DHT22;6920;50.080;8.226;2023-09-19T17:44:21;20.50;99.90
13697;DHT22;6920;50.080;8.226;2023-09-19T17:46:50;20.40;99.90
13697;DHT22;6920;50.080;8.226;2023-09-19T17:51:50;20.40;99.90
13697;DHT22;6920;50.080;8.226;2023-09-19T17:54:18;20.30;99.90
13697;DHT22;6920;50.080;8.226;2023-09-19T17:59:16;20.20;99.90
13697;DHT22;6920;50.080;8.226;2023-09-19T18:01:45;20.10;99.90
13697;DHT22;6920;50.080;8.226;2023-09-19T18:04:14;20.00;99.90
13697;DHT22;6920;50.080;8.226;2023-09-19T18:06:53;20.00;99.90
13697;DHT22;6920;50.080;8.226;2023-09-19T18:09:25;20.00;99.90
13697;DHT22;6920;50.080;8.226;2023-09-19T18:15:20;19.70;99.90
13697;DHT22;6920;50.080;8.226;2023-09-19T18:17:49;19.70;99.90
13697;DHT22;6920;50.080;8.226;2023-09-19T18:25:14;19.50;99.90
13697;DHT22;6920;50.080;8.226;2023-09-19T18:27:43;19.50;99.90
13697;DHT22;6920;50.080;8.226;2023-09-19T18:30:11;19.50;99.90
13697;DHT22;6920;50.080;8.226;2023-09-19T18:35:10;19.50;99.90
13697;DHT22;6920;50.080;8.226;2023-09-19T18:37:38;19.50;99.90
13697;DHT22;6920;50.080;8.226;2023-09-19T18:40:09;19.50;99.90
13697;DHT22;6920;50.080;8.226;2023-09-19T18:42:37;19.40;99.90
13697;DHT22;6920;50.080;8.226;2023-09-19T18:45:07;19.40;99.90
13697;DHT22;6920;50.080;8.226;2023-09-19T18:47:39;19.40;99.90
13697;DHT22;6920;50.080;8.226;2023-09-19T18:50:07;19.30;99.90
13697;DHT22;6920;50.080;8.226;2023-09-19T18:52:35;19.40;99.90
13697;DHT22;6920;50.080;8.226;2023-09-19T18:55:06;19.30;99.90
13697;DHT22;6920;50.080;8.226;2023-09-19T18:57:37;19.20;99.90
13697;DHT22;6920;50.080;8.226;2023-09-19T19:00:09;19.10;99.90
13697;DHT22;6920;50.080;8.226;2023-09-19T19:02:41;19.00;99.90
13697;DHT22;6920;50.080;8.226;2023-09-19T19:05:09;18.90;99.90
13697;DHT22;6920;50.080;8.226;2023-09-19T19:07:36;18.90;99.90
13697;DHT22;6920;50.080;8.226;2023-09-19T19:10:05;18.90;99.90
13697;DHT22;6920;50.080;8.226;2023-09-19T19:12:39;18.80;99.90
13697;DHT22;6920;50.080;8.226;2023-09-19T19:15:07;18.60;99.90
13697;DHT22;6920;50.080;8.226;2023-09-19T19:17:36;18.50;99.90
13697;DHT22;6920;50.080;8.226;2023-09-19T19:20:09;18.40;99.90
13697;DHT22;6920;50.080;8.226;2023-09-19T19:22:37;18.40;99.90
13697;DHT22;6920;50.080;8.226;2023-09-19T19:25:07;18.20;99.90
13697;DHT22;6920;50.080;8.226;2023-09-19T19:27:35;18.30;99.90
13697;DHT22;6920;50.080;8.226;2023-09-19T19:30:06;18.30;99.90
13697;DHT22;6920;50.080;8.226;2023-09-19T19:32:40;18.30;99.90
13697;DHT22;6920;50.080;8.226;2023-09-19T19:35:23;18.10;99.90
13697;DHT22;6920;50.080;8.226;2023-09-19T19:37:54;18.20;99.90
13697;DHT22;6920;50.080;8.226;2023-09-19T19:40:22;18.10;99.90
13697;DHT22;6920;50.080;8.226;2023-09-19T19:42:51;18.10;99.90
13697;DHT22;6920;50.080;8.226;2023-09-19T19:45:24;17.90;99.90
13697;DHT22;6920;50.080;8.226;2023-09-19T19:47:52;17.60;99.90
13697;DHT22;6920;50.080;8.226;2023-09-19T19:50:20;17.60;99.90
13697;DHT22;6920;50.080;8.226;2023-09-19T19:52:52;17.40;99.90
13697;DHT22;6920;50.080;8.226;2023-09-19T19:57:53;17.10;99.90
13697;DHT22;6920;50.080;8.226;2023-09-19T20:06:19;17.10;99.90
13697;DHT22;6920;50.080;8.226;2023-09-19T20:08:48;17.00;99.90
13697;DHT22;6920;50.080;8.226;2023-09-19T20:11:18;17.10;99.90
13697;DHT22;6920;50.080;8.226;2023-09-19T20:13:52;17.00;99.90
13697;DHT22;6920;50.080;8.226;2023-09-19T20:16:27;17.00;99.90
13697;DHT22;6920;50.080;8.226;2023-09-19T20:19:07;16.90;99.90
13697;DHT22;6920;50.080;8.226;2023-09-19T20:21:36;16.70;99.90
13697;DHT22;6920;50.080;8.226;2023-09-19T20:24:06;16.80;99.90
13697;DHT22;6920;50.080;8.226;2023-09-19T20:26:36;16.90;99.90
13697;DHT22;6920;50.080;8.226;2023-09-19T20:31:34;16.70;99.90
13697;DHT22;6920;50.080;8.226;2023-09-19T20:34:05;16.80;99.90
13697;DHT22;6920;50.080;8.226;2023-09-19T20:36:32;16.90;99.90
13697;DHT22;6920;50.080;8.226;2023-09-19T20:38:59;17.00;99.90
13697;DHT22;6920;50.080;8.226;2023-09-19T20:41:28;17.00;99.90
13697;DHT22;6920;50.080;8.226;2023-09-19T20:44:00;17.00;99.90
13697;DHT22;6920;50.080;8.226;2023-09-19T20:46:31;17.00;99.90
13697;DHT22;6920;50.080;8.226;2023-09-19T20:49:02;17.10;99.90
13697;DHT22;6920;50.080;8.226;2023-09-19T20:51:32;17.00;99.90
13697;DHT22;6920;50.080;8.226;2023-09-19T20:54:04;16.90;99.90
13697;DHT22;6920;50.080;8.226;2023-09-19T20:56:33;16.90;99.90
13697;DHT22;6920;50.080;8.226;2023-09-19T21:01:30;16.80;99.90
13697;DHT22;6920;50.080;8.226;2023-09-19T21:08:56;16.80;99.90
13697;DHT22;6920;50.080;8.226;2023-09-19T21:11:27;16.70;99.90
13697;DHT22;6920;50.080;8.226;2023-09-19T21:14:04;16.60;99.90
13697;DHT22;6920;50.080;8.226;2023-09-19T21:16:33;16.50;99.90
13697;DHT22;6920;50.080;8.226;2023-09-19T21:19:02;16.50;99.90
13697;DHT22;6920;50.080;8.226;2023-09-19T21:21:34;15.90;99.90
13697;DHT22;6920;50.080;8.226;2023-09-19T21:24:06;16.50;99.90
13697;DHT22;6920;50.080;8.226;2023-09-19T21:26:40;16.50;99.90
13697;DHT22;6920;50.080;8.226;2023-09-19T21:31:39;16.40;99.90
13697;DHT22;6920;50.080;8.226;2023-09-19T21:34:08;16.50;99.90
13697;DHT22;6920;50.080;8.226;2023-09-19T21:36:37;16.50;99.90
13697;DHT22;6920;50.080;8.226;2023-09-19T21:39:20;16.50;99.90
13697;DHT22;6920;50.080;8.226;2023-09-19T21:41:47;16.40;99.90
13697;DHT22;6920;50.080;8.226;2023-09-19T21:44:18;16.50;99.90
13697;DHT22;6920;50.080;8.226;2023-09-19T21:46:47;16.50;99.90
13697;DHT22;6920;50.080;8.226;2023-09-19T21:49:16;16.40;99.90
13697;DHT22;6920;50.080;8.226;2023-09-19T21:51:46;16.30;99.90
13697;DHT22;6920;50.080;8.226;2023-09-19T21:54:17;16.30;99.90
13697;DHT22;6920;50.080;8.226;2023-09-19T21:56:47;16.40;99.90
13697;DHT22;6920;50.080;8.226;2023-09-19T21:59:20;16.30;99.90
13697;DHT22;6920;50.080;8.226;2023-09-19T22:01:48;16.30;99.90
13697;DHT22;6920;50.080;8.226;2023-09-19T22:04:17;16.30;99.90
13697;DHT22;6920;50.080;8.226;2023-09-19T22:06:48;16.30;99.90
13697;DHT22;6920;50.080;8.226;2023-09-19T22:09:18;16.20;99.90
13697;DHT22;6920;50.080;8.226;2023-09-19T22:11:49;16.20;99.90
13697;DHT22;6920;50.080;8.226;2023-09-19T22:14:20;16.20;99.90
13697;DHT22;6920;50.080;8.226;2023-09-19T22:19:26;16.10;99.90
13697;DHT22;6920;50.080;8.226;2023-09-19T22:21:59;16.10;99.90
13697;DHT22;6920;50.080;8.226;2023-09-19T22:24:33;16.10;99.90
13697;DHT22;6920;50.080;8.226;2023-09-19T22:27:04;16.10;99.90
13697;DHT22;6920;50.080;8.226;2023-09-19T22:29:39;16.10;99.90
13697;DHT22;6920;50.080;8.226;2023-09-19T22:32:10;16.00;99.90
13697;DHT22;6920;50.080;8.226;2023-09-19T22:34:40;16.00;99.90
13697;DHT22;6920;50.080;8.226;2023-09-19T22:37:07;16.10;99.90
13697;DHT22;6920;50.080;8.226;2023-09-19T22:39:39;16.10;99.90
13697;DHT22;6920;50.080;8.226;2023-09-19T22:42:07;16.10;99.90
13697;DHT22;6920;50.080;8.226;2023-09-19T22:44:38;16.10;99.90
13697;DHT22;6920;50.080;8.226;2023-09-19T22:47:07;16.00;99.90
13697;DHT22;6920;50.080;8.226;2023-09-19T22:49:47;16.10;99.90
13697;DHT22;6920;50.080;8.226;2023-09-19T22:52:14;16.10;99.90
13697;DHT22;6920;50.080;8.226;2023-09-19T22:54:49;16.00;99.90
13697;DHT22;6920;50.080;8.226;2023-09-19T22:57:17;16.10;99.90
13697;DHT22;6920;50.080;8.226;2023-09-19T22:59:44;16.10;99.90
13697;DHT22;6920;50.080;8.226;2023-09-19T23:02:16;16.10;99.90
13697;DHT22;6920;50.080;8.226;2023-09-19T23:08:13;16.00;99.90
13697;DHT22;6920;50.080;8.226;2023-09-19T23:10:43;16.00;99.90
13697;DHT22;6920;50.080;8.226;2023-09-19T23:13:17;15.90;99.90
13697;DHT22;6920;50.080;8.226;2023-09-19T23:15:50;15.90;99.90
13697;DHT22;6920;50.080;8.226;2023-09-19T23:18:22;15.90;99.90
13697;DHT22;6920;50.080;8.226;2023-09-19T23:20:54;16.00;99.90
13697;DHT22;6920;50.080;8.226;2023-09-19T23:26:02;16.00;99.90
13697;DHT22;6920;50.080;8.226;2023-09-19T23:28:33;16.10;99.90
13697;DHT22;6920;50.080;8.226;2023-09-19T23:31:05;16.00;99.90
13697;DHT22;6920;50.080;8.226;2023-09-19T23:33:33;16.10;99.90
13697;DHT22;6920;50.080;8.226;2023-09-19T23:36:01;16.20;99.90
13697;DHT22;6920;50.080;8.226;2023-09-19T23:38:30;16.20;99.90
13697;DHT22;6920;50.080;8.226;2023-09-19T23:41:01;16.20;99.90
13697;DHT22;6920;50.080;8.226;2023-09-19T23:43:29;16.10;99.90
13697;DHT22;6920;50.080;8.226;2023-09-19T23:46:04;16.00;99.90
13697;DHT22;6920;50.080;8.226;2023-09-19T23:48:33;16.00;99.90
13697;DHT22;6920;50.080;8.226;2023-09-19T23:51:02;16.10;99.90
13697;DHT22;6920;50.080;8.226;2023-09-19T23:53:30;16.10;99.90
13697;DHT22;6920;50.080;8.226;2023-09-19T23:55:58;16.10;99.90
13697;DHT22;6920;50.080;8.226;2023-09-19T23:58:27;16.10;99.90
